createdAt,value
2023-03-21T09:07:52.412Z,9.9
2023-03-21T09:10:51.378Z,9.6
2023-03-21T09:13:39.306Z,9.6
2023-03-21T09:16:27.543Z,9.6
2023-03-21T09:19:15.850Z,9.6
2023-03-21T09:22:03.834Z,9.6
2023-03-21T09:24:51.849Z,9.6
2023-03-21T09:27:39.764Z,9.6
2023-03-21T09:30:27.736Z,9.6
2023-03-21T09:33:15.633Z,9.6
2023-03-21T09:36:03.842Z,9.7
2023-03-21T09:38:51.606Z,9.8
2023-03-21T09:41:39.561Z,9.8
2023-03-21T09:44:27.435Z,9.8
2023-03-21T09:47:15.377Z,9.8
2023-03-21T09:50:13.420Z,9.9
2023-03-21T09:53:03.087Z,9.9
2023-03-21T09:55:50.958Z,9.9
2023-03-21T09:58:38.964Z,9.9
2023-03-21T10:01:26.932Z,9.9
2023-03-21T10:04:14.864Z,9.9
2023-03-21T10:07:03.168Z,9.9
2023-03-21T10:09:51.408Z,9.9
2023-03-21T10:12:39.243Z,9.9
2023-03-21T10:15:27.357Z,9.8
2023-03-21T10:18:15.175Z,9.7
2023-03-21T10:21:03.044Z,9.6
2023-03-21T10:23:51.140Z,9.5
2023-03-21T10:26:43.282Z,9.5
2023-03-21T10:29:31.596Z,9.4
2023-03-21T10:32:19.967Z,9.4
2023-03-21T10:35:09.498Z,9.4
2023-03-21T10:37:58.608Z,9.3
2023-03-21T10:40:46.591Z,9.4
2023-03-21T10:43:34.582Z,9.3
2023-03-21T10:46:22.605Z,9.3
2023-03-21T10:49:11.329Z,9.3
2023-03-21T10:51:59.515Z,9.4
2023-03-21T10:54:47.402Z,9.4
2023-03-21T10:57:35.182Z,9.5
2023-03-21T11:00:23.171Z,9.5
2023-03-21T11:03:11.159Z,9.6
2023-03-21T11:05:58.980Z,9.7
2023-03-21T11:08:46.945Z,9.7
2023-03-21T11:11:34.922Z,9.8
2023-03-21T11:14:22.706Z,9.8
2023-03-21T11:17:10.799Z,9.9
2023-03-21T11:19:58.784Z,10
2023-03-21T11:22:46.860Z,10.1
2023-03-21T11:25:34.818Z,10.2
2023-03-21T11:28:22.952Z,10.3
2023-03-21T11:31:11.104Z,10.4
2023-03-21T11:33:59.403Z,10.4
2023-03-21T11:36:47.381Z,10.6
2023-03-21T11:39:35.325Z,10.8
2023-03-21T11:42:23.255Z,10.9
2023-03-21T11:45:11.240Z,11
2023-03-21T11:47:59.154Z,11.1
2023-03-21T11:50:47.169Z,11.1
2023-03-21T11:53:35.061Z,11.1
2023-03-21T11:56:23.067Z,11
2023-03-21T11:59:12.470Z,11.1
2023-03-21T12:02:00.508Z,11
2023-03-21T12:04:48.609Z,11
2023-03-21T12:07:36.530Z,11
2023-03-21T12:10:24.420Z,10.9
2023-03-21T12:13:12.427Z,10.9
2023-03-21T12:16:00.330Z,10.9
2023-03-21T12:18:48.474Z,10.8
2023-03-21T12:21:36.260Z,10.8
2023-03-21T12:24:24.245Z,10.8
2023-03-21T12:27:12.086Z,10.9
2023-03-21T12:30:00.304Z,10.9
2023-03-21T12:32:48.262Z,11
2023-03-21T12:35:36.261Z,11.1
2023-03-21T12:38:26.296Z,11.2
2023-03-21T12:41:14.226Z,11.3
2023-03-21T12:44:02.164Z,11.4
2023-03-21T12:46:50.487Z,11.5
2023-03-21T12:49:38.535Z,11.7
2023-03-21T12:52:26.512Z,11.9
2023-03-21T12:55:14.220Z,12
2023-03-21T12:58:02.018Z,12.1
2023-03-21T13:00:49.760Z,12.1
2023-03-21T13:03:40.437Z,12.1
2023-03-21T13:06:28.780Z,12
2023-03-21T13:09:18.034Z,11.9
2023-03-21T13:12:16.226Z,11.9
2023-03-21T13:15:05.970Z,11.9
2023-03-21T13:18:02.788Z,12
2023-03-21T13:20:50.925Z,12.2
2023-03-21T13:23:39.020Z,12.3
2023-03-21T13:26:26.829Z,12.4
2023-03-21T13:29:14.704Z,12.5
2023-03-21T13:32:19.254Z,12.7
2023-03-21T13:35:07.153Z,12.9
2023-03-21T13:37:58.044Z,13
2023-03-21T13:40:45.968Z,13.1
2023-03-21T13:43:34.194Z,13.1
2023-03-21T13:46:22.175Z,13
2023-03-21T13:49:20.687Z,13
2023-03-21T13:52:08.451Z,13
2023-03-21T13:54:56.643Z,13
2023-03-21T13:57:44.579Z,13
2023-03-21T14:00:32.365Z,13
2023-03-21T14:03:20.130Z,13.1
2023-03-21T14:06:08.606Z,13.1
2023-03-21T14:09:05.692Z,13.1
2023-03-21T14:11:56.565Z,13.3
2023-03-21T14:14:51.804Z,13.6
2023-03-21T14:17:39.539Z,14
2023-03-21T14:20:27.231Z,14.2
2023-03-21T14:23:15.106Z,14.2
2023-03-21T14:26:12.618Z,14
2023-03-21T14:29:00.747Z,13.6
2023-03-21T14:31:49.607Z,13.3
2023-03-21T14:34:37.533Z,13.1
2023-03-21T14:37:27.237Z,13
2023-03-21T14:40:15.124Z,12.9
2023-03-21T14:43:02.957Z,12.9
2023-03-21T14:45:51.181Z,12.9
2023-03-21T14:48:39.388Z,13
2023-03-21T14:51:27.273Z,13.1
2023-03-21T14:54:15.109Z,13.3
2023-03-21T14:57:02.827Z,13.5
2023-03-21T14:59:50.575Z,13.7
2023-03-21T15:02:38.715Z,14
2023-03-21T15:05:26.819Z,14.5
2023-03-21T15:08:14.647Z,14.9
2023-03-21T15:11:08.815Z,14.9
2023-03-21T15:13:56.816Z,14.7
2023-03-21T15:16:44.743Z,14.4
2023-03-21T15:19:32.776Z,14.1
2023-03-21T15:22:20.717Z,14
2023-03-21T15:25:08.612Z,13.9
2023-03-21T15:27:56.498Z,13.7
2023-03-21T15:30:44.280Z,13.5
2023-03-21T15:33:32.113Z,13.5
2023-03-21T15:36:20.282Z,13.3
2023-03-21T15:39:08.497Z,13.1
2023-03-21T15:41:56.531Z,13
2023-03-21T15:44:44.282Z,13
2023-03-21T15:47:32.118Z,12.9
2023-03-21T15:50:19.944Z,12.8
2023-03-21T15:53:08.147Z,12.8
2023-03-21T15:55:56.217Z,12.7
2023-03-21T15:58:44.015Z,12.7
2023-03-21T16:01:32.030Z,12.7
2023-03-21T16:04:20.041Z,12.6
2023-03-21T16:07:07.886Z,12.5
2023-03-21T16:09:56.122Z,12.5
2023-03-21T16:12:47.062Z,12.5
2023-03-21T16:15:34.845Z,12.4
2023-03-21T16:18:22.532Z,12.4
2023-03-21T16:21:10.522Z,12.4
2023-03-21T16:23:58.315Z,12.4
2023-03-21T16:26:46.307Z,12.4
2023-03-21T16:29:34.177Z,12.4
2023-03-21T16:32:22.212Z,12.3
2023-03-21T16:35:10.102Z,12.3
2023-03-21T16:37:58.092Z,12.3
2023-03-21T16:40:45.919Z,12.2
2023-03-21T16:43:33.935Z,12.2
2023-03-21T16:46:21.892Z,12.1
2023-03-21T16:49:10.096Z,12.1
2023-03-21T16:51:57.925Z,12.1
2023-03-21T16:54:45.863Z,12.1
2023-03-21T16:57:33.646Z,12.1
2023-03-21T17:00:21.672Z,12.1
2023-03-21T17:03:09.438Z,12.1
2023-03-21T17:05:57.460Z,12.1
2023-03-21T17:08:45.390Z,12.1
2023-03-21T17:11:33.431Z,12.1
2023-03-21T17:14:21.324Z,12.1
2023-03-21T17:17:09.663Z,12.1
2023-03-21T17:19:58.320Z,12.1
2023-03-21T17:22:46.356Z,12
2023-03-21T17:25:34.239Z,12
2023-03-21T17:28:22.049Z,12
2023-03-21T17:31:10.317Z,12
2023-03-21T17:33:58.574Z,12
2023-03-21T17:36:46.495Z,12
2023-03-21T17:39:34.381Z,12
2023-03-21T17:42:22.125Z,11.9
2023-03-21T17:45:09.998Z,11.9
2023-03-21T17:47:57.847Z,11.9
2023-03-21T17:50:45.958Z,11.9
2023-03-21T17:53:33.816Z,11.8
2023-03-21T17:56:21.650Z,11.7
2023-03-21T17:59:09.376Z,11.5
2023-03-21T18:01:57.425Z,11.5
2023-03-21T18:04:45.372Z,11.5
2023-03-21T18:08:04.412Z,11.5
2023-03-21T18:10:58.928Z,11.5
2023-03-21T18:13:46.797Z,11.5
2023-03-21T18:16:34.746Z,11.7
2023-03-21T18:19:22.918Z,11.7
2023-03-21T18:22:13.271Z,11.7
2023-03-21T18:25:01.185Z,11.7
2023-03-21T18:28:09.410Z,11.7
2023-03-21T18:31:22.236Z,11.7
2023-03-21T18:34:10.897Z,11.7
2023-03-21T18:36:59.143Z,11.7
2023-03-21T18:39:48.518Z,11.7
2023-03-21T18:43:27.571Z,11.8
2023-03-21T18:46:52.409Z,11.9
2023-03-21T18:50:27.080Z,11.9
2023-03-21T18:53:15.012Z,11.9
2023-03-21T18:56:36.883Z,12
2023-03-21T19:00:04.893Z,12
2023-03-21T19:03:02.272Z,12
2023-03-21T19:06:06.909Z,12
2023-03-21T19:08:54.804Z,12.1
2023-03-21T19:11:42.574Z,12.1
2023-03-21T19:14:30.819Z,12.1
2023-03-21T19:18:51.984Z,12.1
2023-03-21T19:21:44.452Z,12.1
2023-03-21T19:24:58.631Z,12
2023-03-21T19:27:46.727Z,12
2023-03-21T19:30:49.599Z,12
2023-03-21T19:33:38.856Z,12
2023-03-21T19:36:45.841Z,11.9
2023-03-21T19:39:39.174Z,11.9
2023-03-21T19:42:43.774Z,11.7
2023-03-21T19:45:31.750Z,11.7
2023-03-21T19:48:19.671Z,11.7
2023-03-21T19:51:54.555Z,11.6
2023-03-21T19:54:42.313Z,11.5
2023-03-21T19:57:30.136Z,11.4
2023-03-21T20:00:17.911Z,11.3
2023-03-21T20:03:06.111Z,11.1
2023-03-21T20:05:54.084Z,11
2023-03-21T20:12:29.822Z,10.8
2023-03-21T20:15:21.728Z,10.7
2023-03-21T20:18:14.552Z,10.7
2023-03-21T20:21:02.393Z,10.6
2023-03-21T20:23:50.376Z,10.5
2023-03-21T20:26:38.311Z,10.4
2023-03-21T20:30:11.761Z,10.3
2023-03-21T20:32:59.598Z,10.2
2023-03-21T20:39:31.467Z,10.2
2023-03-21T20:42:19.804Z,10.3
2023-03-21T20:45:25.127Z,10.3
2023-03-21T20:48:13.349Z,10.4
2023-03-21T20:51:01.933Z,10.4
2023-03-21T20:54:28.976Z,10.5
2023-03-21T20:57:17.042Z,10.6
2023-03-21T21:00:04.848Z,10.7
2023-03-21T21:02:52.846Z,10.8
2023-03-21T21:05:54.445Z,10.9
2023-03-21T21:08:42.463Z,10.9
2023-03-21T21:12:26.860Z,11
2023-03-21T21:15:14.791Z,11
2023-03-21T21:18:32.314Z,11.1
2023-03-21T21:21:20.145Z,11
2023-03-21T21:24:08.032Z,11.1
2023-03-21T21:26:55.883Z,11.1
2023-03-21T21:29:43.892Z,11.1
2023-03-21T21:32:31.814Z,11.1
2023-03-21T21:35:19.880Z,11.1
2023-03-21T21:38:07.965Z,11.1
2023-03-21T21:40:55.892Z,11.1
2023-03-21T21:43:43.690Z,11.1
2023-03-21T21:46:31.693Z,11.1
2023-03-21T21:49:19.668Z,11.1
2023-03-21T21:52:07.710Z,11.1
2023-03-21T21:54:55.596Z,11.1
2023-03-21T21:57:43.580Z,11.1
2023-03-21T22:00:31.515Z,11.1
2023-03-21T22:03:19.590Z,11.1
2023-03-21T22:06:07.532Z,11.1
2023-03-21T22:08:55.579Z,11.1
2023-03-21T22:11:43.416Z,11.1
2023-03-21T22:14:31.297Z,11.1
2023-03-21T22:17:19.060Z,11.1
2023-03-21T22:20:08.891Z,11.1
2023-03-21T22:22:56.729Z,11.1
2023-03-21T22:25:44.836Z,11.1
2023-03-21T22:28:32.621Z,11.1
2023-03-21T22:31:20.579Z,11.1
2023-03-21T22:34:08.553Z,11
2023-03-21T22:36:56.423Z,11
2023-03-21T22:39:44.323Z,11
2023-03-21T22:42:32.168Z,10.9
2023-03-21T22:45:19.997Z,10.9
2023-03-21T22:48:08.060Z,11
2023-03-21T22:50:55.908Z,11
2023-03-21T22:53:43.729Z,11
2023-03-21T22:56:31.583Z,11
2023-03-21T22:59:19.514Z,11
2023-03-21T23:02:07.560Z,11
2023-03-21T23:04:55.563Z,10.9
2023-03-21T23:07:43.562Z,10.8
2023-03-21T23:10:31.498Z,10.7
2023-03-21T23:13:19.409Z,10.7
2023-03-21T23:16:07.322Z,10.6
2023-03-21T23:18:55.240Z,10.6
2023-03-21T23:21:43.136Z,10.6
2023-03-21T23:24:30.847Z,10.7
2023-03-21T23:27:18.634Z,10.7
2023-03-21T23:30:06.532Z,10.7
2023-03-21T23:32:54.380Z,10.7
2023-03-21T23:35:42.190Z,10.8
2023-03-21T23:38:30.084Z,10.8
2023-03-21T23:41:17.853Z,10.8
2023-03-21T23:44:05.563Z,10.9
2023-03-21T23:46:53.573Z,10.9
2023-03-21T23:49:41.566Z,10.9
2023-03-21T23:52:29.351Z,11
2023-03-21T23:55:17.234Z,11
2023-03-21T23:58:05.053Z,11
